createdAt,value
2023-02-11T00:00:35.283Z,0.82
2023-02-11T00:01:37.010Z,0.82
2023-02-11T00:02:38.735Z,0.82
2023-02-11T00:03:40.588Z,0.82
2023-02-11T00:04:42.224Z,0.82
2023-02-11T00:05:43.919Z,0.82
2023-02-11T00:06:45.701Z,0.83
2023-02-11T00:07:47.437Z,0.83
2023-02-11T00:08:49.157Z,0.83
2023-02-11T00:09:51.004Z,0.85
2023-02-11T00:10:52.614Z,0.85
2023-02-11T00:11:54.367Z,0.86
2023-02-11T00:12:56.082Z,0.87
2023-02-11T00:13:57.820Z,0.88
2023-02-11T00:14:59.557Z,0.9
2023-02-11T00:16:01.281Z,0.92
2023-02-11T00:17:03.087Z,0.94
2023-02-11T00:18:04.727Z,0.96
2023-02-11T00:19:06.536Z,0.97
2023-02-11T00:20:08.411Z,0.98
2023-02-11T00:21:31.052Z,1.01
2023-02-11T00:22:32.794Z,1.02
2023-02-11T00:23:34.541Z,1.04
2023-02-11T00:24:36.291Z,1.05
2023-02-11T00:25:38.010Z,1.06
2023-02-11T00:26:39.710Z,1.08
2023-02-11T00:27:41.462Z,1.08
2023-02-11T00:28:43.177Z,1.09
2023-02-11T00:29:44.966Z,1.11
2023-02-11T00:30:46.901Z,1.12
2023-02-11T00:31:48.558Z,1.13
2023-02-11T00:32:50.138Z,1.15
2023-02-11T00:33:51.847Z,1.17
2023-02-11T00:34:53.597Z,1.18
2023-02-11T00:35:55.333Z,1.18
2023-02-11T00:36:57.101Z,1.2
2023-02-11T00:37:58.777Z,1.21
2023-02-11T00:39:00.528Z,1.22
2023-02-11T00:40:04.983Z,1.24
2023-02-11T00:41:04.033Z,1.25
2023-02-11T00:42:05.725Z,1.27
2023-02-11T00:43:07.475Z,1.28
2023-02-11T00:44:09.199Z,1.28
2023-02-11T00:45:10.925Z,1.29
2023-02-11T00:46:12.769Z,1.31
2023-02-11T00:47:14.393Z,1.32
2023-02-11T00:48:16.127Z,1.32
2023-02-11T00:49:17.870Z,1.35
2023-02-11T00:50:19.596Z,1.35
2023-02-11T00:51:21.337Z,1.36
2023-02-11T00:52:23.042Z,1.38
2023-02-11T00:53:24.794Z,1.39
2023-02-11T00:54:28.421Z,1.4
2023-02-11T00:55:28.252Z,1.41
2023-02-11T00:56:29.999Z,1.42
2023-02-11T00:57:31.722Z,1.43
2023-02-11T00:58:33.470Z,1.43
2023-02-11T00:59:35.209Z,1.44
2023-02-11T01:00:36.927Z,1.45
2023-02-11T01:01:38.769Z,1.44
2023-02-11T01:02:40.398Z,1.45
2023-02-11T01:03:42.124Z,1.46
2023-02-11T01:04:43.870Z,1.46
2023-02-11T01:05:45.665Z,1.47
2023-02-11T01:06:47.323Z,1.47
2023-02-11T01:07:49.078Z,1.49
2023-02-11T01:08:50.835Z,1.49
2023-02-11T01:09:52.556Z,1.48
2023-02-11T01:10:54.304Z,1.49
2023-02-11T01:11:56.017Z,1.48
2023-02-11T01:12:57.769Z,1.48
2023-02-11T01:13:59.521Z,1.48
2023-02-11T01:15:01.231Z,1.49
2023-02-11T01:16:03.028Z,1.49
2023-02-11T01:17:04.689Z,1.49
2023-02-11T01:18:06.418Z,1.49
2023-02-11T01:19:08.165Z,1.48
2023-02-11T01:20:09.876Z,1.49
2023-02-11T01:21:11.621Z,1.49
2023-02-11T01:22:13.371Z,1.49
2023-02-11T01:23:15.080Z,1.49
2023-02-11T01:24:16.825Z,1.5
2023-02-11T01:25:18.541Z,1.49
2023-02-11T01:26:20.355Z,1.49
2023-02-11T01:27:22.015Z,1.49
2023-02-11T01:28:23.836Z,1.49
2023-02-11T01:29:25.490Z,1.49
2023-02-11T01:30:27.208Z,1.49
2023-02-11T01:31:29.010Z,1.5
2023-02-11T01:32:30.697Z,1.49
2023-02-11T01:33:32.428Z,1.49
2023-02-11T01:34:34.178Z,1.49
2023-02-11T01:35:35.877Z,1.5
2023-02-11T01:36:37.668Z,1.51
2023-02-11T01:37:39.367Z,1.5
2023-02-11T01:38:41.319Z,1.51
2023-02-11T01:39:42.832Z,1.5
2023-02-11T01:40:44.563Z,1.51
2023-02-11T01:41:46.301Z,1.51
2023-02-11T01:42:50.918Z,1.52
2023-02-11T01:43:49.774Z,1.53
2023-02-11T01:44:51.511Z,1.52
2023-02-11T01:45:53.345Z,1.53
2023-02-11T01:46:54.987Z,1.54
2023-02-11T01:47:56.727Z,1.53
2023-02-11T01:48:58.638Z,1.53
2023-02-11T01:50:00.187Z,1.54
2023-02-11T01:51:01.919Z,1.54
2023-02-11T01:52:03.641Z,1.54
2023-02-11T01:53:05.377Z,1.54
2023-02-11T01:54:07.121Z,1.54
2023-02-11T01:55:08.868Z,1.53
2023-02-11T01:56:10.575Z,1.55
2023-02-11T01:57:12.326Z,1.53
2023-02-11T01:58:14.072Z,1.53
2023-02-11T01:59:15.783Z,1.54
2023-02-11T02:00:17.508Z,1.53
2023-02-11T02:01:19.325Z,1.54
2023-02-11T02:02:20.985Z,1.53
2023-02-11T02:03:22.831Z,1.53
2023-02-11T02:04:24.448Z,1.53
2023-02-11T02:05:26.177Z,1.54
2023-02-11T02:06:27.925Z,1.53
2023-02-11T02:07:29.682Z,1.53
2023-02-11T02:08:31.375Z,1.54
2023-02-11T02:09:33.128Z,1.53
2023-02-11T02:10:34.887Z,1.54
2023-02-11T02:11:36.584Z,1.55
2023-02-11T02:12:38.380Z,1.55
2023-02-11T02:13:40.151Z,1.56
2023-02-11T02:14:41.783Z,1.55
2023-02-11T02:15:43.564Z,1.57
2023-02-11T02:16:45.241Z,1.57
2023-02-11T02:17:46.988Z,1.58
2023-02-11T02:18:48.726Z,1.58
2023-02-11T02:19:50.469Z,1.59
2023-02-11T02:20:52.173Z,1.6
2023-02-11T02:21:53.918Z,1.61
2023-02-11T02:22:55.666Z,1.61
2023-02-11T02:23:57.396Z,1.62
2023-02-11T02:24:59.117Z,1.64
2023-02-11T02:26:00.877Z,1.64
2023-02-11T02:27:02.600Z,1.65
2023-02-11T02:28:04.389Z,1.67
2023-02-11T02:29:06.042Z,1.67
2023-02-11T02:30:07.816Z,1.69
2023-02-11T02:31:09.696Z,1.7
2023-02-11T02:32:11.240Z,1.72
2023-02-11T02:33:21.896Z,1.72
2023-02-11T02:34:14.730Z,1.73
2023-02-11T02:35:16.457Z,1.74
2023-02-11T02:36:18.193Z,1.75
2023-02-11T02:37:19.943Z,1.76
2023-02-11T02:38:21.657Z,1.76
2023-02-11T02:39:23.412Z,1.76
2023-02-11T02:40:25.144Z,1.77
2023-02-11T02:41:26.857Z,1.79
2023-02-11T02:42:28.598Z,1.79
2023-02-11T02:43:30.345Z,1.8
2023-02-11T02:44:32.070Z,1.79
2023-02-11T02:45:33.886Z,1.81
2023-02-11T02:46:35.554Z,1.81
2023-02-11T02:47:37.292Z,1.81
2023-02-11T02:48:39.002Z,1.81
2023-02-11T02:49:40.749Z,1.82
2023-02-11T02:50:42.484Z,1.83
2023-02-11T02:51:44.215Z,1.84
2023-02-11T02:52:45.951Z,1.83
2023-02-11T02:53:47.670Z,1.83
2023-02-11T02:54:49.397Z,1.83
2023-02-11T02:55:51.594Z,1.84
2023-02-11T02:56:53.035Z,1.85
2023-02-11T02:57:54.602Z,1.85
2023-02-11T02:58:56.349Z,1.86
2023-02-11T02:59:58.105Z,1.85
2023-02-11T03:00:59.953Z,1.86
2023-02-11T03:02:01.639Z,1.87
2023-02-11T03:03:03.282Z,1.86
2023-02-11T03:04:05.172Z,1.86
2023-02-11T03:05:06.768Z,1.87
2023-02-11T03:06:08.518Z,1.88
2023-02-11T03:07:10.233Z,1.87
2023-02-11T03:08:11.962Z,1.87
2023-02-11T03:09:13.703Z,1.88
2023-02-11T03:10:15.446Z,1.89
2023-02-11T03:11:17.167Z,1.88
2023-02-11T03:12:18.895Z,1.88
2023-02-11T03:13:20.610Z,1.89
2023-02-11T03:14:22.363Z,1.88
2023-02-11T03:15:24.092Z,1.89
2023-02-11T03:16:25.917Z,1.88
2023-02-11T03:17:27.593Z,1.88
2023-02-11T03:18:29.339Z,1.88
2023-02-11T03:19:31.027Z,1.88
2023-02-11T03:20:32.804Z,1.9
2023-02-11T03:21:34.507Z,1.89
2023-02-11T03:22:36.232Z,1.9
2023-02-11T03:23:37.987Z,1.9
2023-02-11T03:24:39.722Z,1.9
2023-02-11T03:25:41.426Z,1.91
2023-02-11T03:26:43.196Z,1.9
2023-02-11T03:27:44.922Z,1.91
2023-02-11T03:28:46.640Z,1.9
2023-02-11T03:29:48.379Z,1.91
2023-02-11T03:30:50.166Z,1.91
2023-02-11T03:31:52.118Z,1.91
2023-02-11T03:32:53.588Z,1.92
2023-02-11T03:33:55.314Z,1.92
2023-02-11T03:34:57.040Z,1.92
2023-02-11T03:35:58.761Z,1.92
2023-02-11T03:37:00.511Z,1.93
2023-02-11T03:38:02.290Z,1.93
2023-02-11T03:39:04.094Z,1.93
2023-02-11T03:40:05.730Z,1.93
2023-02-11T03:41:07.435Z,1.93
2023-02-11T03:42:09.179Z,1.93
2023-02-11T03:43:10.927Z,1.93
2023-02-11T03:44:12.672Z,1.94
2023-02-11T03:45:14.386Z,1.92
2023-02-11T03:46:16.129Z,1.92
2023-02-11T03:47:17.876Z,1.92
2023-02-11T03:48:19.570Z,1.92
2023-02-11T03:49:21.351Z,1.92
2023-02-11T03:50:23.055Z,1.93
2023-02-11T03:51:24.793Z,1.93
2023-02-11T03:52:26.535Z,1.92
2023-02-11T03:53:28.255Z,1.93
2023-02-11T03:54:30.009Z,1.94
2023-02-11T03:55:31.705Z,1.94
2023-02-11T03:56:33.472Z,1.94
2023-02-11T03:57:35.243Z,1.95
2023-02-11T03:58:36.951Z,1.93
2023-02-11T03:59:38.705Z,1.94
2023-02-11T04:00:40.396Z,1.93
2023-02-11T04:01:42.217Z,1.93
2023-02-11T04:02:43.870Z,1.92
2023-02-11T04:03:45.618Z,1.92
2023-02-11T04:04:47.319Z,1.92
2023-02-11T04:05:49.389Z,1.9
2023-02-11T04:06:50.821Z,1.89
2023-02-11T04:07:52.542Z,1.89
2023-02-11T04:08:54.284Z,1.9
2023-02-11T04:09:56.014Z,1.88
2023-02-11T04:10:57.753Z,1.87
2023-02-11T04:11:59.476Z,1.86
2023-02-11T04:13:01.210Z,1.84
2023-02-11T04:14:02.962Z,1.83
2023-02-11T04:15:04.669Z,1.81
2023-02-11T04:16:06.480Z,1.79
2023-02-11T04:17:08.129Z,1.77
2023-02-11T04:18:09.889Z,1.74
2023-02-11T04:19:11.600Z,1.72
2023-02-11T04:20:13.364Z,1.69
2023-02-11T04:21:15.069Z,1.64
2023-02-11T04:22:16.861Z,1.62
2023-02-11T04:23:18.561Z,1.58
2023-02-11T04:24:20.312Z,1.55
2023-02-11T04:25:22.014Z,1.52
2023-02-11T04:26:23.723Z,1.48
2023-02-11T04:27:25.472Z,1.44
2023-02-11T04:28:27.239Z,1.42
2023-02-11T04:29:29.111Z,1.38
2023-02-11T04:30:30.676Z,1.35
2023-02-11T04:31:32.405Z,1.32
2023-02-11T04:32:34.140Z,1.29
2023-02-11T04:33:35.897Z,1.25
2023-02-11T04:34:37.634Z,1.24
2023-02-11T04:35:39.351Z,1.22
2023-02-11T04:36:41.073Z,1.21
2023-02-11T04:37:42.822Z,1.18
2023-02-11T04:38:44.537Z,1.17
2023-02-11T04:39:46.303Z,1.17
2023-02-11T04:40:48.044Z,1.15
2023-02-11T04:41:49.756Z,1.15
2023-02-11T04:42:51.493Z,1.15
2023-02-11T04:43:53.253Z,1.15
2023-02-11T04:44:54.969Z,1.16
2023-02-11T04:45:56.727Z,1.15
2023-02-11T04:46:58.418Z,1.15
2023-02-11T04:48:00.137Z,1.17
2023-02-11T04:49:01.914Z,1.18
2023-02-11T04:50:03.653Z,1.18
2023-02-11T04:51:05.350Z,1.2
2023-02-11T04:52:07.101Z,1.21
2023-02-11T04:53:08.853Z,1.21
2023-02-11T04:54:10.540Z,1.23
2023-02-11T04:55:12.300Z,1.24
2023-02-11T04:56:14.042Z,1.23
2023-02-11T04:57:15.768Z,1.24
2023-02-11T04:58:17.499Z,1.25
2023-02-11T04:59:19.236Z,1.27
2023-02-11T05:00:20.967Z,1.27
2023-02-11T05:01:22.741Z,1.27
2023-02-11T05:02:24.457Z,1.28
2023-02-11T05:03:26.159Z,1.29
2023-02-11T05:04:27.994Z,1.3
2023-02-11T05:05:29.618Z,1.29
2023-02-11T05:06:31.395Z,1.31
2023-02-11T05:07:33.091Z,1.31
2023-02-11T05:08:34.838Z,1.32
2023-02-11T05:09:36.568Z,1.32
2023-02-11T05:10:38.294Z,1.32
2023-02-11T05:11:40.031Z,1.34
2023-02-11T05:12:41.774Z,1.33
2023-02-11T05:13:43.495Z,1.35
2023-02-11T05:14:45.253Z,1.36
2023-02-11T05:15:46.992Z,1.37
2023-02-11T05:16:48.806Z,1.38
2023-02-11T05:17:50.440Z,1.38
2023-02-11T05:18:52.732Z,1.41
2023-02-11T05:19:53.908Z,1.41
2023-02-11T05:20:55.635Z,1.42
2023-02-11T05:22:03.181Z,1.43
2023-02-11T05:22:59.107Z,1.44
2023-02-11T05:24:00.820Z,1.45
2023-02-11T05:25:02.571Z,1.47
2023-02-11T05:26:04.284Z,1.47
2023-02-11T05:27:06.030Z,1.47
2023-02-11T05:28:07.812Z,1.47
2023-02-11T05:29:09.489Z,1.48
2023-02-11T05:30:11.298Z,1.48
2023-02-11T05:31:13.055Z,1.48
2023-02-11T05:32:14.689Z,1.49
2023-02-11T05:33:16.426Z,1.49
2023-02-11T05:34:18.202Z,1.49
2023-02-11T05:35:19.917Z,1.5
2023-02-11T05:36:21.623Z,1.5
2023-02-11T05:37:23.422Z,1.5
2023-02-11T05:38:25.122Z,1.49
2023-02-11T05:39:26.868Z,1.5
2023-02-11T05:40:28.583Z,1.5
2023-02-11T05:41:30.328Z,1.49
2023-02-11T05:42:32.026Z,1.5
2023-02-11T05:43:33.767Z,1.52
2023-02-11T05:44:35.538Z,1.53
2023-02-11T05:45:37.238Z,1.55
2023-02-11T05:46:39.057Z,1.56
2023-02-11T05:47:40.725Z,1.58
2023-02-11T05:48:42.469Z,1.59
2023-02-11T05:49:44.209Z,1.59
2023-02-11T05:50:45.947Z,1.59
2023-02-11T05:51:47.669Z,1.6
2023-02-11T05:52:49.379Z,1.6
2023-02-11T05:53:51.124Z,1.59
2023-02-11T05:54:52.881Z,1.6
2023-02-11T05:55:54.574Z,1.61
2023-02-11T05:56:56.332Z,1.62
2023-02-11T05:57:58.078Z,1.62
2023-02-11T05:58:59.790Z,1.63
2023-02-11T06:00:01.574Z,1.63
2023-02-11T06:01:03.246Z,1.63
2023-02-11T06:02:04.982Z,1.63
2023-02-11T06:03:06.739Z,1.65
2023-02-11T06:04:08.651Z,1.64
2023-02-11T06:05:10.193Z,1.65
2023-02-11T06:06:11.925Z,1.66
2023-02-11T06:07:13.655Z,1.66
2023-02-11T06:08:15.406Z,1.68
2023-02-11T06:09:17.205Z,1.67
2023-02-11T06:10:18.895Z,1.67
2023-02-11T06:11:20.708Z,1.66
2023-02-11T06:12:22.317Z,1.67
2023-02-11T06:13:24.070Z,1.67
2023-02-11T06:14:25.804Z,1.65
2023-02-11T06:15:27.533Z,1.66
2023-02-11T06:19:25.252Z,1.67
2023-02-11T06:20:27.015Z,1.69
2023-02-11T06:21:42.492Z,1.68
2023-02-11T06:22:30.411Z,1.69
2023-02-11T06:23:32.193Z,1.69
2023-02-11T06:24:54.975Z,1.68
2023-02-11T06:25:35.631Z,1.68
2023-02-11T06:26:37.354Z,1.68
2023-02-11T06:27:39.092Z,1.68
2023-02-11T06:28:42.070Z,1.66
2023-02-11T06:29:42.604Z,1.67
2023-02-11T06:30:44.317Z,1.65
2023-02-11T06:31:46.229Z,1.63
2023-02-11T06:32:48.009Z,1.63
2023-02-11T06:33:49.519Z,1.62
2023-02-11T06:34:51.244Z,1.59
2023-02-11T06:35:53.165Z,1.59
2023-02-11T06:36:54.691Z,1.56
2023-02-11T06:37:56.434Z,1.55
2023-02-11T06:38:58.167Z,1.53
2023-02-11T06:39:59.910Z,1.51
2023-02-11T06:41:01.640Z,1.49
2023-02-11T06:42:03.367Z,1.47
2023-02-11T06:43:05.106Z,1.45
2023-02-11T06:44:06.846Z,1.44
2023-02-11T06:45:08.586Z,1.42
2023-02-11T06:46:10.620Z,1.39
2023-02-11T06:47:12.037Z,1.38
2023-02-11T06:48:13.776Z,1.37
2023-02-11T06:49:15.507Z,1.37
2023-02-11T06:50:17.265Z,1.36
2023-02-11T06:51:18.991Z,1.35
2023-02-11T06:52:20.730Z,1.34
2023-02-11T06:53:22.463Z,1.34
2023-02-11T06:54:24.265Z,1.35
2023-02-11T06:55:25.937Z,1.34
2023-02-11T06:56:27.705Z,1.33
2023-02-11T06:57:29.374Z,1.35
2023-02-11T06:58:31.102Z,1.34
2023-02-11T06:59:32.865Z,1.35
2023-02-11T07:00:34.609Z,1.35
2023-02-11T07:01:36.379Z,1.35
2023-02-11T07:02:38.071Z,1.35
2023-02-11T07:03:39.786Z,1.36
2023-02-11T07:04:41.530Z,1.36
2023-02-11T07:05:43.258Z,1.36
2023-02-11T07:06:44.980Z,1.35
2023-02-11T07:07:46.733Z,1.36
2023-02-11T07:08:48.451Z,1.35
2023-02-11T07:09:50.206Z,1.36
2023-02-11T07:10:51.926Z,1.35
2023-02-11T07:11:53.677Z,1.35
2023-02-11T07:12:58.385Z,1.35
2023-02-11T07:13:57.155Z,1.35
2023-02-11T07:14:58.892Z,1.35
2023-02-11T07:16:00.592Z,1.35
2023-02-11T07:17:02.327Z,1.36
2023-02-11T07:18:04.102Z,1.35
2023-02-11T07:19:05.796Z,1.34
2023-02-11T07:20:07.536Z,1.36
2023-02-11T07:21:09.257Z,1.36
2023-02-11T07:22:11.057Z,1.36
2023-02-11T07:23:12.739Z,1.36
2023-02-11T07:24:14.469Z,1.39
2023-02-11T07:25:16.219Z,1.4
2023-02-11T07:26:17.928Z,1.41
2023-02-11T07:27:19.658Z,1.43
2023-02-11T07:28:21.428Z,1.45
2023-02-11T07:29:23.135Z,1.47
2023-02-11T07:30:24.888Z,1.5
2023-02-11T07:31:26.783Z,1.52
2023-02-11T07:32:28.439Z,1.56
2023-02-11T07:33:30.073Z,1.58
2023-02-11T07:34:31.975Z,1.62
2023-02-11T07:35:33.542Z,1.65
2023-02-11T07:36:35.279Z,1.68
2023-02-11T07:37:36.997Z,1.72
2023-02-11T07:38:38.747Z,1.76
2023-02-11T07:39:40.503Z,1.79
2023-02-11T07:40:42.191Z,1.83
2023-02-11T07:41:43.941Z,1.88
2023-02-11T07:42:45.658Z,1.91
2023-02-11T07:43:47.409Z,1.93
2023-02-11T07:44:50.557Z,1.97
2023-02-11T07:45:51.112Z,2
2023-02-11T07:46:52.653Z,2.04
2023-02-11T07:47:54.374Z,2.06
2023-02-11T07:48:56.090Z,2.09
2023-02-11T07:49:57.840Z,2.11
2023-02-11T07:50:59.573Z,2.14
2023-02-11T07:52:01.305Z,2.17
2023-02-11T07:53:03.035Z,2.2
2023-02-11T07:54:04.765Z,2.26
2023-02-11T07:55:06.472Z,2.33
2023-02-11T07:56:08.253Z,2.38
2023-02-11T07:57:09.941Z,2.41
2023-02-11T07:58:11.688Z,2.44
2023-02-11T07:59:13.439Z,2.47
2023-02-11T08:00:15.177Z,2.52
2023-02-11T08:01:16.956Z,2.53
2023-02-11T08:02:18.672Z,2.61
2023-02-11T08:03:20.366Z,2.62
2023-02-11T08:04:22.087Z,2.65
2023-02-11T08:05:23.814Z,2.67
2023-02-11T08:06:25.566Z,2.7
2023-02-11T08:07:27.304Z,2.72
2023-02-11T08:08:29.070Z,2.73
2023-02-11T08:09:33.401Z,2.76
2023-02-11T08:10:32.490Z,2.77
2023-02-11T08:11:34.241Z,2.78
2023-02-11T08:12:35.952Z,2.77
2023-02-11T08:13:37.674Z,2.79
2023-02-11T08:14:39.428Z,2.83
2023-02-11T08:15:41.162Z,2.83
2023-02-11T08:16:42.910Z,2.84
2023-02-11T08:17:44.633Z,2.88
2023-02-11T08:18:46.373Z,2.91
2023-02-11T08:19:48.085Z,2.92
2023-02-11T08:20:50.094Z,2.97
2023-02-11T08:21:51.573Z,3.01
2023-02-11T08:22:53.290Z,3.05
2023-02-11T08:23:55.028Z,3.1
2023-02-11T08:24:56.763Z,3.15
2023-02-11T08:25:58.494Z,3.22
2023-02-11T08:27:00.236Z,3.27
2023-02-11T08:28:02.019Z,3.3
2023-02-11T08:29:03.812Z,3.38
2023-02-11T08:30:05.454Z,3.44
2023-02-11T08:31:07.224Z,3.53
2023-02-11T08:32:08.950Z,3.63
2023-02-11T08:33:10.642Z,3.71
2023-02-11T08:34:12.370Z,3.82
2023-02-11T08:35:14.100Z,3.92
2023-02-11T08:36:15.829Z,3.99
2023-02-11T08:37:17.585Z,4.05
2023-02-11T08:38:19.303Z,4.12
2023-02-11T08:39:21.228Z,4.22
2023-02-11T08:40:22.801Z,4.34
2023-02-11T08:41:24.494Z,4.44
2023-02-11T08:42:26.244Z,4.45
2023-02-11T08:43:27.965Z,4.47
2023-02-11T08:44:29.735Z,4.48
2023-02-11T08:45:31.484Z,4.51
2023-02-11T08:46:33.225Z,4.5
2023-02-11T08:47:34.915Z,4.46
2023-02-11T08:48:36.656Z,4.41
2023-02-11T08:49:38.389Z,4.37
2023-02-11T08:50:40.175Z,4.34
2023-02-11T08:51:41.847Z,4.28
2023-02-11T08:52:43.586Z,4.23
2023-02-11T08:53:45.291Z,4.23
2023-02-11T08:54:47.035Z,4.23
2023-02-11T08:55:48.978Z,4.21
2023-02-11T08:56:50.501Z,4.22
2023-02-11T08:57:52.244Z,4.22
2023-02-11T08:58:53.975Z,4.24
2023-02-11T08:59:55.721Z,4.29
2023-02-11T09:00:57.530Z,4.37
2023-02-11T09:01:59.267Z,4.38
2023-02-11T09:03:00.930Z,4.47
2023-02-11T09:04:02.646Z,4.57
2023-02-11T09:05:04.395Z,4.66
2023-02-11T09:06:06.125Z,4.75
2023-02-11T09:07:07.845Z,4.78
2023-02-11T09:08:09.596Z,4.85
2023-02-11T09:09:11.295Z,4.94
2023-02-11T09:10:13.060Z,5
2023-02-11T09:11:14.792Z,5.05
2023-02-11T09:12:16.524Z,5.11
2023-02-11T09:13:18.277Z,5.14
2023-02-11T09:14:19.974Z,5.13
2023-02-11T09:15:21.727Z,5.15
2023-02-11T09:16:23.467Z,5.12
2023-02-11T09:17:25.172Z,5.14
2023-02-11T09:18:26.934Z,5.14
2023-02-11T09:19:28.665Z,5.12
2023-02-11T09:20:30.402Z,5.11
2023-02-11T09:21:32.125Z,5.1
2023-02-11T09:22:33.900Z,5.11
2023-02-11T09:23:35.598Z,5.11
2023-02-11T09:24:37.315Z,5.18
2023-02-11T09:25:39.081Z,5.22
2023-02-11T09:26:40.782Z,5.24
2023-02-11T09:27:42.520Z,5.25
2023-02-11T09:28:44.269Z,5.3
2023-02-11T09:29:45.982Z,5.31
2023-02-11T09:30:47.910Z,5.35
2023-02-11T09:31:49.617Z,5.37
2023-02-11T09:32:51.189Z,5.34
2023-02-11T09:33:52.943Z,5.34
2023-02-11T09:34:54.706Z,5.35
2023-02-11T09:35:56.394Z,5.32
2023-02-11T09:36:58.150Z,5.33
2023-02-11T09:37:59.852Z,5.33
2023-02-11T09:39:01.582Z,5.33
2023-02-11T09:40:03.384Z,5.32
2023-02-11T09:41:05.078Z,5.32
2023-02-11T09:42:06.814Z,5.31
2023-02-11T09:43:08.516Z,5.3
2023-02-11T09:44:10.331Z,5.29
2023-02-11T09:45:12.010Z,5.29
2023-02-11T09:46:13.814Z,5.29
2023-02-11T09:47:15.472Z,5.3
2023-02-11T09:48:17.194Z,5.31
2023-02-11T09:49:18.941Z,5.33
2023-02-11T09:50:20.684Z,5.34
2023-02-11T09:51:22.416Z,5.36
2023-02-11T09:52:24.118Z,5.37
2023-02-11T09:53:25.880Z,5.38
2023-02-11T09:54:27.637Z,5.39
2023-02-11T09:55:29.355Z,5.41
2023-02-11T09:56:31.096Z,5.43
2023-02-11T09:57:32.830Z,5.44
2023-02-11T09:58:34.562Z,5.47
2023-02-11T09:59:36.290Z,5.46
2023-02-11T10:00:38.024Z,5.45
2023-02-11T10:01:39.779Z,5.47
2023-02-11T10:02:41.484Z,5.47
2023-02-11T10:03:43.231Z,5.5
2023-02-11T10:04:45.052Z,5.52
2023-02-11T10:05:46.736Z,5.54
2023-02-11T10:06:48.441Z,5.56
2023-02-11T10:07:50.160Z,5.61
2023-02-11T10:08:51.928Z,5.63
2023-02-11T10:09:53.628Z,5.65
2023-02-11T10:10:55.347Z,5.67
2023-02-11T10:11:57.126Z,5.7
2023-02-11T10:12:58.827Z,5.72
2023-02-11T10:14:00.599Z,5.73
2023-02-11T10:15:02.301Z,5.75
2023-02-11T10:16:04.106Z,5.78
2023-02-11T10:17:05.913Z,5.82
2023-02-11T10:18:07.489Z,5.83
2023-02-11T10:19:09.221Z,5.85
2023-02-11T10:20:10.975Z,5.87
2023-02-11T10:21:12.711Z,5.87
2023-02-11T10:22:14.433Z,5.88
2023-02-11T10:23:16.174Z,5.9
2023-02-11T10:24:18.087Z,5.88
2023-02-11T10:25:19.644Z,5.87
2023-02-11T10:26:21.379Z,5.88
2023-02-11T10:27:23.096Z,5.88
2023-02-11T10:28:24.944Z,5.89
2023-02-11T10:29:26.574Z,5.91
2023-02-11T10:30:28.371Z,5.92
2023-02-11T10:31:30.190Z,5.93
2023-02-11T10:32:31.801Z,5.94
2023-02-11T10:33:33.502Z,5.95
2023-02-11T10:34:35.223Z,5.95
2023-02-11T10:35:36.988Z,5.95
2023-02-11T10:36:38.709Z,5.95
2023-02-11T10:37:42.387Z,5.94
2023-02-11T10:38:42.236Z,5.92
2023-02-11T10:39:43.929Z,5.92
2023-02-11T10:40:45.668Z,5.93
2023-02-11T10:41:47.396Z,5.9
2023-02-11T10:42:49.118Z,5.9
2023-02-11T10:43:50.849Z,5.91
2023-02-11T10:44:52.616Z,5.91
2023-02-11T10:45:54.314Z,5.92
2023-02-11T10:46:56.075Z,5.92
2023-02-11T10:47:57.774Z,5.93
2023-02-11T10:48:59.529Z,5.95
2023-02-11T10:50:01.296Z,5.95
2023-02-11T10:51:02.976Z,5.95
2023-02-11T10:52:04.730Z,5.94
2023-02-11T10:53:06.471Z,5.96
2023-02-11T10:54:08.204Z,5.96
2023-02-11T10:55:09.947Z,5.97
2023-02-11T10:56:11.650Z,5.97
2023-02-11T10:57:13.402Z,5.97
2023-02-11T10:58:15.137Z,5.95
2023-02-11T10:59:19.057Z,5.96
2023-02-11T11:00:18.702Z,5.93
2023-02-11T11:01:24.734Z,5.94
2023-02-11T11:02:22.071Z,5.93
2023-02-11T11:03:23.778Z,5.95
2023-02-11T11:04:25.572Z,5.93
2023-02-11T11:05:27.304Z,5.92
2023-02-11T11:06:28.992Z,5.94
2023-02-11T11:07:30.744Z,5.94
2023-02-11T11:08:32.466Z,5.94
2023-02-11T11:09:34.210Z,5.95
2023-02-11T11:10:35.942Z,5.97
2023-02-11T11:11:37.533Z,5.98
2023-02-11T11:12:41.131Z,6.01
2023-02-11T11:13:40.990Z,6.04
2023-02-11T11:14:42.707Z,6.06
2023-02-11T11:15:44.723Z,6.08
2023-02-11T11:16:46.186Z,6.12
2023-02-11T11:17:47.925Z,6.14
2023-02-11T11:18:49.668Z,6.16
2023-02-11T11:19:51.412Z,6.18
2023-02-11T11:20:53.189Z,6.23
2023-02-11T11:21:54.861Z,6.29
2023-02-11T11:22:56.582Z,6.35
2023-02-11T11:23:58.338Z,6.39
2023-02-11T11:25:00.037Z,6.42
2023-02-11T11:26:01.789Z,6.46
2023-02-11T11:27:03.538Z,6.49
2023-02-11T11:28:05.318Z,6.51
2023-02-11T11:29:07.000Z,6.51
2023-02-11T11:30:08.727Z,6.5
2023-02-11T11:31:10.641Z,6.51
2023-02-11T11:32:12.264Z,6.51
2023-02-11T11:33:13.947Z,6.53
2023-02-11T11:34:15.641Z,6.52
2023-02-11T11:35:17.407Z,6.51
2023-02-11T11:36:19.123Z,6.51
2023-02-11T11:37:20.845Z,6.52
2023-02-11T11:38:22.571Z,6.52
2023-02-11T11:39:24.322Z,6.53
2023-02-11T11:40:26.065Z,6.53
2023-02-11T11:41:27.794Z,6.56
2023-02-11T11:42:29.535Z,6.57
2023-02-11T11:43:31.258Z,6.56
2023-02-11T11:44:33.013Z,6.57
2023-02-11T11:45:34.717Z,6.63
2023-02-11T11:46:36.504Z,6.68
2023-02-11T11:47:38.206Z,6.75
2023-02-11T11:48:40.062Z,6.81
2023-02-11T11:49:41.644Z,6.9
2023-02-11T11:50:43.392Z,6.98
2023-02-11T11:51:45.148Z,7.06
2023-02-11T11:52:46.866Z,7.13
2023-02-11T11:53:48.573Z,7.18
2023-02-11T11:54:50.330Z,7.25
2023-02-11T11:55:52.075Z,7.29
2023-02-11T11:56:53.821Z,7.3
2023-02-11T11:57:55.546Z,7.32
2023-02-11T11:58:57.281Z,7.36
2023-02-11T11:59:59.003Z,7.37
2023-02-11T12:01:00.739Z,7.37
2023-02-11T12:02:02.585Z,7.37
2023-02-11T12:03:04.220Z,7.37
2023-02-11T12:04:05.930Z,7.34
2023-02-11T12:05:07.689Z,7.31
2023-02-11T12:06:09.406Z,7.29
2023-02-11T12:07:11.148Z,7.26
2023-02-11T12:08:12.876Z,7.2
2023-02-11T12:09:14.593Z,7.17
2023-02-11T12:10:16.369Z,7.15
2023-02-11T12:11:18.055Z,7.11
2023-02-11T12:12:19.792Z,7.08
2023-02-11T12:13:21.514Z,7.03
2023-02-11T12:14:23.285Z,7.01
2023-02-11T12:15:25.012Z,6.97
2023-02-11T12:16:26.781Z,6.93
2023-02-11T12:17:28.465Z,6.9
2023-02-11T12:18:30.204Z,6.86
2023-02-11T12:19:31.971Z,6.83
2023-02-11T12:20:33.744Z,6.81
2023-02-11T12:21:35.388Z,6.79
2023-02-11T12:22:37.135Z,6.77
2023-02-11T12:23:38.878Z,6.76
2023-02-11T12:24:40.596Z,6.74
2023-02-11T12:25:42.324Z,6.74
2023-02-11T12:26:44.054Z,6.75
2023-02-11T12:27:45.818Z,6.75
2023-02-11T12:28:47.560Z,6.75
2023-02-11T12:29:49.306Z,6.75
2023-02-11T12:30:51.334Z,6.75
2023-02-11T12:31:52.833Z,6.75
2023-02-11T12:32:54.469Z,6.76
2023-02-11T12:33:56.227Z,6.77
2023-02-11T12:34:57.958Z,6.77
2023-02-11T12:35:59.690Z,6.77
2023-02-11T12:37:02.823Z,6.78
2023-02-11T12:38:03.150Z,6.79
2023-02-11T12:39:04.890Z,6.81
2023-02-11T12:40:06.616Z,6.81
2023-02-11T12:41:08.326Z,6.82
2023-02-11T12:42:10.064Z,6.83
2023-02-11T12:43:11.830Z,6.84
2023-02-11T12:44:13.530Z,6.85
2023-02-11T12:45:15.283Z,6.86
2023-02-11T12:46:17.141Z,6.9
2023-02-11T12:47:18.745Z,6.91
2023-02-11T12:48:20.505Z,6.93
2023-02-11T12:49:22.195Z,6.95
2023-02-11T12:50:23.973Z,6.97
2023-02-11T12:51:25.702Z,6.99
2023-02-11T12:52:27.408Z,7
2023-02-11T12:53:29.158Z,7.02
2023-02-11T12:54:30.908Z,7.05
2023-02-11T12:55:32.636Z,7.08
2023-02-11T12:56:34.352Z,7.08
2023-02-11T12:57:36.108Z,7.1
2023-02-11T12:58:45.032Z,7.12
2023-02-11T12:59:39.574Z,7.13
2023-02-11T13:00:41.346Z,7.15
2023-02-11T13:01:43.085Z,7.17
2023-02-11T13:02:44.842Z,7.18
2023-02-11T13:03:46.513Z,7.2
2023-02-11T13:04:48.220Z,7.2
2023-02-11T13:05:49.982Z,7.2
2023-02-11T13:06:51.714Z,7.21
2023-02-11T13:07:53.432Z,7.2
2023-02-11T13:08:55.170Z,7.21
2023-02-11T13:09:56.918Z,7.2
2023-02-11T13:10:58.651Z,7.2
2023-02-11T13:12:00.365Z,7.2
2023-02-11T13:13:02.105Z,7.19
2023-02-11T13:14:03.834Z,7.18
2023-02-11T13:15:05.606Z,7.18
2023-02-11T13:16:07.363Z,7.18
2023-02-11T13:17:09.037Z,7.16
2023-02-11T13:18:10.798Z,7.17
2023-02-11T13:19:12.546Z,7.17
2023-02-11T13:20:14.293Z,7.18
2023-02-11T13:21:15.992Z,7.18
2023-02-11T13:22:17.714Z,7.17
2023-02-11T13:23:19.460Z,7.17
2023-02-11T13:24:21.167Z,7.18
2023-02-11T13:25:22.928Z,7.19
2023-02-11T13:26:24.649Z,7.18
2023-02-11T13:27:26.389Z,7.18
2023-02-11T13:28:28.204Z,7.17
2023-02-11T13:29:29.868Z,7.18
2023-02-11T13:30:31.683Z,7.18
2023-02-11T13:31:33.355Z,7.18
2023-02-11T13:32:35.042Z,7.2
2023-02-11T13:33:36.797Z,7.18
2023-02-11T13:34:38.581Z,7.2
2023-02-11T13:35:40.280Z,7.2
2023-02-11T13:36:41.994Z,7.22
2023-02-11T13:37:43.715Z,7.2
2023-02-11T13:38:45.464Z,7.18
2023-02-11T13:39:47.219Z,7.18
2023-02-11T13:40:49.061Z,7.17
2023-02-11T13:41:52.610Z,7.16
2023-02-11T13:42:52.384Z,7.14
2023-02-11T13:43:54.110Z,7.15
2023-02-11T13:44:55.870Z,7.14
2023-02-11T13:45:57.681Z,7.14
2023-02-11T13:46:59.318Z,7.14